Jandakot, Western Australia

1:33 PM AWST on November 27, 2014 (GMT +0800)
Residential | Change Station
CLOSE
Current Station
Personal Weather Station
Location: Leeming, WESTERN AUSTRALIA
Elevation: 95 ft
Nearby Weather Stations

Elev 95 ft 32.08 °S, 115.85 °E | Updated 13 seconds ago

Clear
Clear
82.2 °F
Feels Like 85 °F
N
3.6
Wind Variable Wind from SSE
Gusts 3.6 mph

Today
High -- | Low -- °F
--% Chance of Precip.
Yesterday
High -- | Low -- °F
Precip. -- in
5:03 AM 7:04 PM
Waxing Crescent, 26% visible
Pressure 29.83 in
Visibility -9999.0 miles
Clouds
Heat Index 85 °F
Dew Point 68 °F
Humidity 63%
Rainfall 0.08 in
Snow Depth Not available.
UV Not available.
Pollen Not available.
Air Quality Not available.
Flu Activity Not available.
METAR YPPH 270500Z 18013KT CAVOK 26/17 Q1010 INTER 0600/0800 VRB25G45KT 4000 TSRA SCT060 FEW100CB

More Conditions Fewer Conditions

Pressure 29.83 in
Visibility -9999.0 miles
Clouds
Heat Index 85 °F
Dew Point 68 °F
Humidity 63%
Rainfall 0.08 in
Snow Depth Not available.
UV Not available.
Pollen Not available.
Air Quality Not available.
Flu Activity Not available.
METAR YPPH 270500Z 18013KT CAVOK 26/17 Q1010 INTER 0600/0800 VRB25G45KT 4000 TSRA SCT060 FEW100CB

More Conditions Fewer Conditions

10-Day Weather Forecast

Almanac

Astronomy

Nov. 27, 2014 Rise Set
Actual Time
Civil Twilight
Nautical Twilight
Astronomical Twilight
Moon
Length of Visible Light
Length of Day
Tomorrow will be .
, % of the Moon is Illuminated

Today's Extremes

Country Highs Country Lows

Community

WunderPhotos

Upload Photos

1,773,960 photos uploaded!

WunderBlogs® & News

Nearby

Air Quality

  Air Quality AQ Index Pollutant
Not available.

Snow Depth

Station Depth Elevation

Earthquake Activity

City Distance Mag. Time & Date
Minimum magnitude displayed is 2.5.

Coastal Water Temperatures

Place Temperature

Nearby Weather Stations